sensor_id;sensor_type;location;lat;lon;timestamp;P1;durP1;ratioP1;P2;durP2;ratioP2
53533;SDS011;39421;53.204;6.568;2023-07-16T00:00:01;9.60;;;2.38;;
53533;SDS011;39421;53.204;6.568;2023-07-16T00:02:29;8.47;;;2.20;;
53533;SDS011;39421;53.204;6.568;2023-07-16T00:04:55;9.15;;;2.40;;
53533;SDS011;39421;53.204;6.568;2023-07-16T00:07:22;9.77;;;2.30;;
53533;SDS011;39421;53.204;6.568;2023-07-16T00:09:48;8.48;;;2.22;;
53533;SDS011;39421;53.204;6.568;2023-07-16T00:12:14;9.13;;;2.40;;
53533;SDS011;39421;53.204;6.568;2023-07-16T00:14:40;8.43;;;2.10;;
53533;SDS011;39421;53.204;6.568;2023-07-16T00:17:06;9.52;;;2.47;;
53533;SDS011;39421;53.204;6.568;2023-07-16T00:19:32;11.02;;;2.60;;
53533;SDS011;39421;53.204;6.568;2023-07-16T00:21:58;9.33;;;2.40;;
53533;SDS011;39421;53.204;6.568;2023-07-16T00:24:24;12.10;;;2.60;;
53533;SDS011;39421;53.204;6.568;2023-07-16T00:26:52;12.20;;;2.63;;
53533;SDS011;39421;53.204;6.568;2023-07-16T00:29:18;11.68;;;2.80;;
53533;SDS011;39421;53.204;6.568;2023-07-16T00:31:44;9.98;;;2.75;;
53533;SDS011;39421;53.204;6.568;2023-07-16T00:34:10;9.83;;;2.90;;
53533;SDS011;39421;53.204;6.568;2023-07-16T00:36:38;10.10;;;2.33;;
53533;SDS011;39421;53.204;6.568;2023-07-16T00:39:04;9.93;;;2.60;;
53533;SDS011;39421;53.204;6.568;2023-07-16T00:41:30;11.40;;;2.60;;
53533;SDS011;39421;53.204;6.568;2023-07-16T00:43:56;10.82;;;2.80;;
53533;SDS011;39421;53.204;6.568;2023-07-16T00:46:23;11.20;;;2.88;;
53533;SDS011;39421;53.204;6.568;2023-07-16T00:48:49;9.55;;;2.42;;
53533;SDS011;39421;53.204;6.568;2023-07-16T00:51:16;11.17;;;2.60;;
53533;SDS011;39421;53.204;6.568;2023-07-16T00:53:43;11.05;;;2.70;;
53533;SDS011;39421;53.204;6.568;2023-07-16T00:56:09;10.73;;;2.30;;
53533;SDS011;39421;53.204;6.568;2023-07-16T00:58:36;9.32;;;2.50;;
53533;SDS011;39421;53.204;6.568;2023-07-16T01:01:02;9.77;;;2.20;;
53533;SDS011;39421;53.204;6.568;2023-07-16T01:03:28;10.20;;;2.60;;
53533;SDS011;39421;53.204;6.568;2023-07-16T01:08:22;8.70;;;2.30;;
53533;SDS011;39421;53.204;6.568;2023-07-16T01:10:52;13.02;;;2.88;;
53533;SDS011;39421;53.204;6.568;2023-07-16T01:13:19;10.73;;;2.80;;
53533;SDS011;39421;53.204;6.568;2023-07-16T01:15:46;11.30;;;2.63;;
53533;SDS011;39421;53.204;6.568;2023-07-16T01:18:12;10.27;;;2.83;;
53533;SDS011;39421;53.204;6.568;2023-07-16T01:20:38;10.63;;;2.80;;
53533;SDS011;39421;53.204;6.568;2023-07-16T01:26:08;11.07;;;2.70;;
53533;SDS011;39421;53.204;6.568;2023-07-16T01:29:21;12.35;;;2.70;;
53533;SDS011;39421;53.204;6.568;2023-07-16T01:31:26;11.35;;;3.00;;
53533;SDS011;39421;53.204;6.568;2023-07-16T01:33:53;10.93;;;2.65;;
53533;SDS011;39421;53.204;6.568;2023-07-16T01:36:20;9.40;;;2.60;;
53533;SDS011;39421;53.204;6.568;2023-07-16T01:38:47;10.25;;;2.50;;
53533;SDS011;39421;53.204;6.568;2023-07-16T01:41:13;9.57;;;2.50;;
53533;SDS011;39421;53.204;6.568;2023-07-16T01:43:39;9.23;;;2.33;;
53533;SDS011;39421;53.204;6.568;2023-07-16T01:46:05;9.60;;;2.40;;
53533;SDS011;39421;53.204;6.568;2023-07-16T01:48:32;10.98;;;3.00;;
53533;SDS011;39421;53.204;6.568;2023-07-16T01:50:59;8.20;;;2.20;;
53533;SDS011;39421;53.204;6.568;2023-07-16T01:53:25;11.32;;;2.78;;
53533;SDS011;39421;53.204;6.568;2023-07-16T01:55:51;12.38;;;2.70;;
53533;SDS011;39421;53.204;6.568;2023-07-16T01:58:18;10.73;;;2.50;;
53533;SDS011;39421;53.204;6.568;2023-07-16T02:00:44;9.25;;;2.25;;
53533;SDS011;39421;53.204;6.568;2023-07-16T02:03:10;8.57;;;2.30;;
53533;SDS011;39421;53.204;6.568;2023-07-16T02:05:37;8.65;;;2.47;;
53533;SDS011;39421;53.204;6.568;2023-07-16T02:08:03;9.38;;;2.50;;
53533;SDS011;39421;53.204;6.568;2023-07-16T02:10:29;8.98;;;2.38;;
53533;SDS011;39421;53.204;6.568;2023-07-16T02:12:55;11.05;;;2.60;;
53533;SDS011;39421;53.204;6.568;2023-07-16T02:15:21;9.15;;;2.60;;
53533;SDS011;39421;53.204;6.568;2023-07-16T02:17:48;8.50;;;2.33;;
53533;SDS011;39421;53.204;6.568;2023-07-16T02:20:14;9.07;;;2.70;;
53533;SDS011;39421;53.204;6.568;2023-07-16T02:22:40;9.07;;;2.50;;
53533;SDS011;39421;53.204;6.568;2023-07-16T02:25:06;11.95;;;2.92;;
53533;SDS011;39421;53.204;6.568;2023-07-16T02:27:32;9.57;;;2.70;;
53533;SDS011;39421;53.204;6.568;2023-07-16T02:29:59;9.77;;;3.10;;
53533;SDS011;39421;53.204;6.568;2023-07-16T02:32:25;10.07;;;2.88;;
53533;SDS011;39421;53.204;6.568;2023-07-16T02:34:51;17.03;;;3.30;;
53533;SDS011;39421;53.204;6.568;2023-07-16T02:37:17;10.27;;;3.10;;
53533;SDS011;39421;53.204;6.568;2023-07-16T02:39:44;10.27;;;3.10;;
53533;SDS011;39421;53.204;6.568;2023-07-16T02:42:11;11.38;;;3.22;;
53533;SDS011;39421;53.204;6.568;2023-07-16T02:44:37;9.77;;;3.28;;
53533;SDS011;39421;53.204;6.568;2023-07-16T02:47:08;10.23;;;3.10;;
53533;SDS011;39421;53.204;6.568;2023-07-16T02:49:34;10.43;;;3.30;;
53533;SDS011;39421;53.204;6.568;2023-07-16T02:52:00;11.77;;;3.28;;
53533;SDS011;39421;53.204;6.568;2023-07-16T02:54:26;10.10;;;3.60;;
53533;SDS011;39421;53.204;6.568;2023-07-16T02:56:52;10.88;;;3.33;;
53533;SDS011;39421;53.204;6.568;2023-07-16T02:59:19;12.60;;;3.53;;
53533;SDS011;39421;53.204;6.568;2023-07-16T03:01:45;10.68;;;3.15;;
53533;SDS011;39421;53.204;6.568;2023-07-16T03:04:11;10.80;;;3.38;;
53533;SDS011;39421;53.204;6.568;2023-07-16T03:06:37;11.83;;;3.60;;
53533;SDS011;39421;53.204;6.568;2023-07-16T03:09:03;8.90;;;3.15;;
53533;SDS011;39421;53.204;6.568;2023-07-16T03:11:29;10.90;;;3.47;;
53533;SDS011;39421;53.204;6.568;2023-07-16T03:13:55;10.47;;;3.10;;
53533;SDS011;39421;53.204;6.568;2023-07-16T03:16:21;11.88;;;3.40;;
53533;SDS011;39421;53.204;6.568;2023-07-16T03:18:48;10.52;;;3.22;;
53533;SDS011;39421;53.204;6.568;2023-07-16T03:21:14;11.25;;;3.22;;
53533;SDS011;39421;53.204;6.568;2023-07-16T03:23:40;9.80;;;3.20;;
53533;SDS011;39421;53.204;6.568;2023-07-16T03:26:06;11.23;;;3.60;;
53533;SDS011;39421;53.204;6.568;2023-07-16T03:28:32;10.93;;;3.47;;
53533;SDS011;39421;53.204;6.568;2023-07-16T03:30:58;11.70;;;3.42;;
53533;SDS011;39421;53.204;6.568;2023-07-16T03:33:24;12.38;;;3.92;;
53533;SDS011;39421;53.204;6.568;2023-07-16T03:35:50;11.55;;;3.70;;
53533;SDS011;39421;53.204;6.568;2023-07-16T03:38:17;11.88;;;3.38;;
53533;SDS011;39421;53.204;6.568;2023-07-16T03:40:45;10.98;;;3.50;;
53533;SDS011;39421;53.204;6.568;2023-07-16T03:43:14;11.63;;;3.43;;
53533;SDS011;39421;53.204;6.568;2023-07-16T03:45:40;11.45;;;3.58;;
53533;SDS011;39421;53.204;6.568;2023-07-16T03:48:07;9.73;;;3.70;;
53533;SDS011;39421;53.204;6.568;2023-07-16T03:50:33;9.45;;;3.50;;
53533;SDS011;39421;53.204;6.568;2023-07-16T03:52:59;11.63;;;3.63;;
53533;SDS011;39421;53.204;6.568;2023-07-16T03:55:26;14.20;;;3.70;;
53533;SDS011;39421;53.204;6.568;2023-07-16T03:57:52;12.33;;;4.03;;
53533;SDS011;39421;53.204;6.568;2023-07-16T04:00:18;10.65;;;3.63;;
53533;SDS011;39421;53.204;6.568;2023-07-16T04:02:44;11.18;;;4.03;;
53533;SDS011;39421;53.204;6.568;2023-07-16T04:05:10;11.37;;;3.83;;
53533;SDS011;39421;53.204;6.568;2023-07-16T04:07:36;13.07;;;4.10;;
53533;SDS011;39421;53.204;6.568;2023-07-16T04:10:03;14.30;;;4.20;;
53533;SDS011;39421;53.204;6.568;2023-07-16T04:12:29;12.50;;;4.10;;
53533;SDS011;39421;53.204;6.568;2023-07-16T04:14:56;11.27;;;4.28;;
53533;SDS011;39421;53.204;6.568;2023-07-16T04:17:23;13.88;;;3.75;;
53533;SDS011;39421;53.204;6.568;2023-07-16T04:19:49;11.80;;;4.03;;
53533;SDS011;39421;53.204;6.568;2023-07-16T04:22:15;13.75;;;4.15;;
53533;SDS011;39421;53.204;6.568;2023-07-16T04:24:41;11.15;;;4.35;;
53533;SDS011;39421;53.204;6.568;2023-07-16T04:27:07;10.73;;;3.85;;
53533;SDS011;39421;53.204;6.568;2023-07-16T04:29:34;12.15;;;4.15;;
53533;SDS011;39421;53.204;6.568;2023-07-16T04:32:00;12.60;;;4.57;;
53533;SDS011;39421;53.204;6.568;2023-07-16T04:34:26;12.38;;;4.22;;
53533;SDS011;39421;53.204;6.568;2023-07-16T04:36:52;13.13;;;3.92;;
53533;SDS011;39421;53.204;6.568;2023-07-16T04:39:19;14.77;;;4.67;;
53533;SDS011;39421;53.204;6.568;2023-07-16T04:41:45;12.20;;;4.38;;
53533;SDS011;39421;53.204;6.568;2023-07-16T04:44:11;13.00;;;4.32;;
53533;SDS011;39421;53.204;6.568;2023-07-16T04:46:37;12.43;;;4.05;;
53533;SDS011;39421;53.204;6.568;2023-07-16T04:49:04;13.82;;;4.43;;
53533;SDS011;39421;53.204;6.568;2023-07-16T04:51:31;13.73;;;4.53;;
53533;SDS011;39421;53.204;6.568;2023-07-16T04:53:57;11.98;;;4.40;;
53533;SDS011;39421;53.204;6.568;2023-07-16T04:56:23;11.90;;;4.20;;
53533;SDS011;39421;53.204;6.568;2023-07-16T04:58:49;13.45;;;4.53;;
53533;SDS011;39421;53.204;6.568;2023-07-16T05:01:15;13.60;;;4.57;;
53533;SDS011;39421;53.204;6.568;2023-07-16T05:03:42;12.07;;;4.90;;
53533;SDS011;39421;53.204;6.568;2023-07-16T05:06:09;12.30;;;4.45;;
53533;SDS011;39421;53.204;6.568;2023-07-16T05:08:35;12.93;;;4.83;;
53533;SDS011;39421;53.204;6.568;2023-07-16T05:11:01;12.13;;;4.65;;
53533;SDS011;39421;53.204;6.568;2023-07-16T05:13:27;15.93;;;4.72;;
53533;SDS011;39421;53.204;6.568;2023-07-16T05:15:53;14.03;;;4.67;;
53533;SDS011;39421;53.204;6.568;2023-07-16T05:18:20;13.80;;;4.55;;
53533;SDS011;39421;53.204;6.568;2023-07-16T05:20:47;11.80;;;4.30;;
53533;SDS011;39421;53.204;6.568;2023-07-16T05:23:14;11.02;;;4.32;;
53533;SDS011;39421;53.204;6.568;2023-07-16T05:25:47;13.40;;;4.47;;
53533;SDS011;39421;53.204;6.568;2023-07-16T05:28:14;12.97;;;4.70;;
53533;SDS011;39421;53.204;6.568;2023-07-16T05:30:40;11.15;;;4.18;;
53533;SDS011;39421;53.204;6.568;2023-07-16T05:33:06;12.05;;;4.18;;
53533;SDS011;39421;53.204;6.568;2023-07-16T05:35:32;13.48;;;4.40;;
53533;SDS011;39421;53.204;6.568;2023-07-16T05:37:58;14.93;;;4.00;;
53533;SDS011;39421;53.204;6.568;2023-07-16T05:40:24;11.50;;;3.92;;
53533;SDS011;39421;53.204;6.568;2023-07-16T05:42:50;13.80;;;4.27;;
53533;SDS011;39421;53.204;6.568;2023-07-16T05:45:16;11.32;;;4.18;;
53533;SDS011;39421;53.204;6.568;2023-07-16T05:47:42;11.52;;;3.78;;
53533;SDS011;39421;53.204;6.568;2023-07-16T05:50:09;14.13;;;4.00;;
53533;SDS011;39421;53.204;6.568;2023-07-16T05:52:35;11.77;;;3.90;;
53533;SDS011;39421;53.204;6.568;2023-07-16T05:55:01;11.07;;;3.90;;
53533;SDS011;39421;53.204;6.568;2023-07-16T05:57:27;15.68;;;3.85;;
53533;SDS011;39421;53.204;6.568;2023-07-16T05:59:53;12.40;;;3.92;;
53533;SDS011;39421;53.204;6.568;2023-07-16T06:02:19;13.60;;;3.78;;
53533;SDS011;39421;53.204;6.568;2023-07-16T06:04:45;12.07;;;3.65;;
53533;SDS011;39421;53.204;6.568;2023-07-16T06:07:12;9.60;;;3.58;;
53533;SDS011;39421;53.204;6.568;2023-07-16T06:09:38;10.15;;;3.40;;
53533;SDS011;39421;53.204;6.568;2023-07-16T06:12:04;10.52;;;3.92;;
53533;SDS011;39421;53.204;6.568;2023-07-16T06:14:31;11.95;;;3.70;;
53533;SDS011;39421;53.204;6.568;2023-07-16T06:16:59;11.70;;;3.53;;
53533;SDS011;39421;53.204;6.568;2023-07-16T06:19:25;12.00;;;3.60;;
53533;SDS011;39421;53.204;6.568;2023-07-16T06:21:51;15.00;;;3.85;;
53533;SDS011;39421;53.204;6.568;2023-07-16T06:24:17;26.05;;;4.63;;
53533;SDS011;39421;53.204;6.568;2023-07-16T06:26:43;10.05;;;3.83;;
53533;SDS011;39421;53.204;6.568;2023-07-16T06:29:09;19.25;;;4.68;;
53533;SDS011;39421;53.204;6.568;2023-07-16T06:31:35;12.18;;;3.90;;
53533;SDS011;39421;53.204;6.568;2023-07-16T06:34:02;15.80;;;4.20;;
53533;SDS011;39421;53.204;6.568;2023-07-16T06:36:28;20.65;;;4.35;;
53533;SDS011;39421;53.204;6.568;2023-07-16T06:38:54;10.90;;;4.20;;
53533;SDS011;39421;53.204;6.568;2023-07-16T06:41:20;17.15;;;4.55;;
53533;SDS011;39421;53.204;6.568;2023-07-16T06:43:46;12.23;;;4.10;;
53533;SDS011;39421;53.204;6.568;2023-07-16T06:46:13;18.58;;;4.72;;
53533;SDS011;39421;53.204;6.568;2023-07-16T06:48:39;12.33;;;4.60;;
53533;SDS011;39421;53.204;6.568;2023-07-16T06:51:08;16.50;;;4.78;;
53533;SDS011;39421;53.204;6.568;2023-07-16T06:53:34;11.98;;;4.20;;
53533;SDS011;39421;53.204;6.568;2023-07-16T06:56:01;12.93;;;4.35;;
53533;SDS011;39421;53.204;6.568;2023-07-16T06:58:31;11.82;;;4.20;;
53533;SDS011;39421;53.204;6.568;2023-07-16T07:00:58;24.42;;;5.57;;
53533;SDS011;39421;53.204;6.568;2023-07-16T07:03:24;16.02;;;4.57;;
53533;SDS011;39421;53.204;6.568;2023-07-16T07:05:50;13.35;;;4.55;;
53533;SDS011;39421;53.204;6.568;2023-07-16T07:08:16;30.40;;;5.63;;
53533;SDS011;39421;53.204;6.568;2023-07-16T07:10:42;15.17;;;4.50;;
53533;SDS011;39421;53.204;6.568;2023-07-16T07:13:14;20.13;;;5.13;;
53533;SDS011;39421;53.204;6.568;2023-07-16T07:15:41;11.40;;;4.20;;
53533;SDS011;39421;53.204;6.568;2023-07-16T07:18:07;11.23;;;4.17;;
53533;SDS011;39421;53.204;6.568;2023-07-16T07:20:33;11.77;;;4.57;;
53533;SDS011;39421;53.204;6.568;2023-07-16T07:22:59;16.25;;;4.72;;
53533;SDS011;39421;53.204;6.568;2023-07-16T07:25:28;16.03;;;4.60;;
53533;SDS011;39421;53.204;6.568;2023-07-16T07:27:54;22.98;;;5.32;;
53533;SDS011;39421;53.204;6.568;2023-07-16T07:30:20;14.07;;;4.60;;
53533;SDS011;39421;53.204;6.568;2023-07-16T07:32:47;21.30;;;4.80;;
53533;SDS011;39421;53.204;6.568;2023-07-16T07:35:13;18.75;;;5.18;;
53533;SDS011;39421;53.204;6.568;2023-07-16T07:37:39;11.00;;;3.95;;
53533;SDS011;39421;53.204;6.568;2023-07-16T07:40:05;10.87;;;4.07;;
53533;SDS011;39421;53.204;6.568;2023-07-16T07:42:32;12.80;;;4.10;;
53533;SDS011;39421;53.204;6.568;2023-07-16T07:44:59;28.95;;;6.28;;
53533;SDS011;39421;53.204;6.568;2023-07-16T07:47:25;12.65;;;4.65;;
53533;SDS011;39421;53.204;6.568;2023-07-16T07:49:54;33.50;;;5.43;;
53533;SDS011;39421;53.204;6.568;2023-07-16T07:52:20;14.50;;;4.15;;
53533;SDS011;39421;53.204;6.568;2023-07-16T07:54:47;15.38;;;4.53;;
53533;SDS011;39421;53.204;6.568;2023-07-16T07:57:14;11.05;;;4.00;;
53533;SDS011;39421;53.204;6.568;2023-07-16T07:59:40;12.52;;;4.30;;
53533;SDS011;39421;53.204;6.568;2023-07-16T08:02:06;12.50;;;4.50;;
53533;SDS011;39421;53.204;6.568;2023-07-16T08:04:32;18.38;;;4.68;;
53533;SDS011;39421;53.204;6.568;2023-07-16T08:06:58;12.75;;;4.32;;
53533;SDS011;39421;53.204;6.568;2023-07-16T08:09:25;12.43;;;4.80;;
53533;SDS011;39421;53.204;6.568;2023-07-16T08:11:52;11.18;;;4.53;;
53533;SDS011;39421;53.204;6.568;2023-07-16T08:14:18;16.00;;;4.82;;
53533;SDS011;39421;53.204;6.568;2023-07-16T08:16:44;12.85;;;4.63;;
53533;SDS011;39421;53.204;6.568;2023-07-16T08:19:10;25.13;;;5.75;;
53533;SDS011;39421;53.204;6.568;2023-07-16T08:21:36;14.25;;;4.20;;
53533;SDS011;39421;53.204;6.568;2023-07-16T08:24:04;20.93;;;4.93;;
53533;SDS011;39421;53.204;6.568;2023-07-16T08:26:30;18.77;;;5.00;;
53533;SDS011;39421;53.204;6.568;2023-07-16T08:28:56;12.93;;;4.65;;
53533;SDS011;39421;53.204;6.568;2023-07-16T08:31:22;11.45;;;4.97;;
53533;SDS011;39421;53.204;6.568;2023-07-16T08:33:48;12.15;;;4.63;;
53533;SDS011;39421;53.204;6.568;2023-07-16T08:36:15;11.55;;;4.57;;
53533;SDS011;39421;53.204;6.568;2023-07-16T08:38:41;10.63;;;5.03;;
53533;SDS011;39421;53.204;6.568;2023-07-16T08:41:07;16.17;;;5.00;;
53533;SDS011;39421;53.204;6.568;2023-07-16T08:43:33;11.55;;;5.32;;
53533;SDS011;39421;53.204;6.568;2023-07-16T08:46:00;11.57;;;4.70;;
53533;SDS011;39421;53.204;6.568;2023-07-16T08:48:27;11.13;;;4.80;;
53533;SDS011;39421;53.204;6.568;2023-07-16T08:50:54;13.32;;;5.10;;
53533;SDS011;39421;53.204;6.568;2023-07-16T08:53:21;12.00;;;4.75;;
53533;SDS011;39421;53.204;6.568;2023-07-16T08:55:47;11.40;;;4.30;;
53533;SDS011;39421;53.204;6.568;2023-07-16T08:58:13;15.37;;;4.83;;
53533;SDS011;39421;53.204;6.568;2023-07-16T09:00:46;14.32;;;4.65;;
53533;SDS011;39421;53.204;6.568;2023-07-16T09:03:12;12.13;;;5.10;;
53533;SDS011;39421;53.204;6.568;2023-07-16T09:05:39;16.05;;;4.68;;
53533;SDS011;39421;53.204;6.568;2023-07-16T09:08:05;11.47;;;4.73;;
53533;SDS011;39421;53.204;6.568;2023-07-16T09:10:32;14.43;;;4.80;;
53533;SDS011;39421;53.204;6.568;2023-07-16T09:12:58;11.73;;;4.00;;
53533;SDS011;39421;53.204;6.568;2023-07-16T09:15:26;14.80;;;4.40;;
53533;SDS011;39421;53.204;6.568;2023-07-16T09:17:54;14.38;;;4.25;;
53533;SDS011;39421;53.204;6.568;2023-07-16T09:20:20;17.13;;;4.30;;
53533;SDS011;39421;53.204;6.568;2023-07-16T09:22:49;17.40;;;4.43;;
53533;SDS011;39421;53.204;6.568;2023-07-16T09:25:15;13.23;;;4.45;;
53533;SDS011;39421;53.204;6.568;2023-07-16T09:27:42;12.88;;;4.75;;
53533;SDS011;39421;53.204;6.568;2023-07-16T09:30:14;11.32;;;4.20;;
53533;SDS011;39421;53.204;6.568;2023-07-16T09:32:40;13.27;;;4.53;;
53533;SDS011;39421;53.204;6.568;2023-07-16T09:35:09;10.88;;;4.25;;
53533;SDS011;39421;53.204;6.568;2023-07-16T09:37:37;9.30;;;4.05;;
53533;SDS011;39421;53.204;6.568;2023-07-16T09:40:04;11.48;;;4.97;;
53533;SDS011;39421;53.204;6.568;2023-07-16T09:42:33;10.35;;;4.28;;
53533;SDS011;39421;53.204;6.568;2023-07-16T09:45:00;14.82;;;4.10;;
53533;SDS011;39421;53.204;6.568;2023-07-16T09:47:27;14.90;;;4.80;;
53533;SDS011;39421;53.204;6.568;2023-07-16T09:49:53;11.38;;;4.18;;
53533;SDS011;39421;53.204;6.568;2023-07-16T09:52:19;21.10;;;5.30;;
53533;SDS011;39421;53.204;6.568;2023-07-16T09:54:45;17.50;;;4.72;;
53533;SDS011;39421;53.204;6.568;2023-07-16T09:57:12;14.38;;;4.45;;
53533;SDS011;39421;53.204;6.568;2023-07-16T09:59:40;14.15;;;4.68;;
53533;SDS011;39421;53.204;6.568;2023-07-16T10:02:06;18.30;;;4.60;;
53533;SDS011;39421;53.204;6.568;2023-07-16T10:04:39;27.15;;;5.90;;
53533;SDS011;39421;53.204;6.568;2023-07-16T10:07:06;14.02;;;4.40;;
53533;SDS011;39421;53.204;6.568;2023-07-16T10:09:36;14.02;;;4.53;;
53533;SDS011;39421;53.204;6.568;2023-07-16T10:12:16;14.73;;;4.65;;
53533;SDS011;39421;53.204;6.568;2023-07-16T10:14:47;19.38;;;4.57;;
53533;SDS011;39421;53.204;6.568;2023-07-16T10:17:21;11.73;;;4.13;;
53533;SDS011;39421;53.204;6.568;2023-07-16T10:19:57;12.20;;;4.10;;
53533;SDS011;39421;53.204;6.568;2023-07-16T10:24:59;19.05;;;4.70;;
53533;SDS011;39421;53.204;6.568;2023-07-16T10:27:26;10.68;;;4.45;;
53533;SDS011;39421;53.204;6.568;2023-07-16T10:29:53;10.43;;;3.92;;
53533;SDS011;39421;53.204;6.568;2023-07-16T10:32:20;23.02;;;4.93;;
53533;SDS011;39421;53.204;6.568;2023-07-16T10:34:46;17.83;;;4.95;;
53533;SDS011;39421;53.204;6.568;2023-07-16T10:37:12;25.48;;;4.90;;
53533;SDS011;39421;53.204;6.568;2023-07-16T10:40:12;11.57;;;3.95;;
53533;SDS011;39421;53.204;6.568;2023-07-16T10:42:31;12.07;;;4.18;;
53533;SDS011;39421;53.204;6.568;2023-07-16T10:44:58;12.73;;;4.53;;
53533;SDS011;39421;53.204;6.568;2023-07-16T10:47:32;10.63;;;4.20;;
53533;SDS011;39421;53.204;6.568;2023-07-16T10:49:58;14.07;;;4.57;;
53533;SDS011;39421;53.204;6.568;2023-07-16T10:52:25;17.40;;;4.70;;
53533;SDS011;39421;53.204;6.568;2023-07-16T10:54:52;12.75;;;4.65;;
53533;SDS011;39421;53.204;6.568;2023-07-16T10:57:22;13.40;;;4.68;;
53533;SDS011;39421;53.204;6.568;2023-07-16T10:59:50;13.63;;;4.75;;
53533;SDS011;39421;53.204;6.568;2023-07-16T11:02:17;20.02;;;5.10;;
53533;SDS011;39421;53.204;6.568;2023-07-16T11:04:44;15.32;;;4.68;;
53533;SDS011;39421;53.204;6.568;2023-07-16T11:07:11;20.50;;;5.40;;
53533;SDS011;39421;53.204;6.568;2023-07-16T11:09:41;37.33;;;6.43;;
53533;SDS011;39421;53.204;6.568;2023-07-16T11:12:11;18.00;;;4.88;;
53533;SDS011;39421;53.204;6.568;2023-07-16T11:14:38;34.35;;;5.95;;
53533;SDS011;39421;53.204;6.568;2023-07-16T11:17:05;13.68;;;4.30;;
53533;SDS011;39421;53.204;6.568;2023-07-16T11:19:32;14.07;;;4.40;;
53533;SDS011;39421;53.204;6.568;2023-07-16T11:21:59;10.10;;;3.70;;
53533;SDS011;39421;53.204;6.568;2023-07-16T11:24:26;16.73;;;4.23;;
53533;SDS011;39421;53.204;6.568;2023-07-16T11:26:53;11.15;;;4.30;;
53533;SDS011;39421;53.204;6.568;2023-07-16T11:29:23;9.82;;;4.07;;
53533;SDS011;39421;53.204;6.568;2023-07-16T11:31:50;11.57;;;4.00;;
53533;SDS011;39421;53.204;6.568;2023-07-16T11:34:16;14.73;;;4.72;;
53533;SDS011;39421;53.204;6.568;2023-07-16T11:36:43;18.10;;;4.53;;
53533;SDS011;39421;53.204;6.568;2023-07-16T11:39:10;10.00;;;4.00;;
53533;SDS011;39421;53.204;6.568;2023-07-16T11:41:37;14.25;;;4.07;;
53533;SDS011;39421;53.204;6.568;2023-07-16T11:44:03;11.38;;;4.00;;
53533;SDS011;39421;53.204;6.568;2023-07-16T11:46:32;12.13;;;3.80;;
53533;SDS011;39421;53.204;6.568;2023-07-16T11:49:02;25.67;;;4.70;;
53533;SDS011;39421;53.204;6.568;2023-07-16T11:51:29;10.98;;;3.60;;
53533;SDS011;39421;53.204;6.568;2023-07-16T11:53:55;9.63;;;4.00;;
53533;SDS011;39421;53.204;6.568;2023-07-16T11:56:22;16.00;;;4.03;;
53533;SDS011;39421;53.204;6.568;2023-07-16T11:58:49;14.10;;;4.38;;
53533;SDS011;39421;53.204;6.568;2023-07-16T12:01:15;11.52;;;3.88;;
53533;SDS011;39421;53.204;6.568;2023-07-16T12:03:41;10.18;;;4.13;;
53533;SDS011;39421;53.204;6.568;2023-07-16T12:06:08;10.25;;;4.40;;
53533;SDS011;39421;53.204;6.568;2023-07-16T12:08:34;12.40;;;4.60;;
53533;SDS011;39421;53.204;6.568;2023-07-16T12:11:00;11.20;;;4.53;;
53533;SDS011;39421;53.204;6.568;2023-07-16T12:13:26;10.32;;;4.45;;
53533;SDS011;39421;53.204;6.568;2023-07-16T12:15:52;11.60;;;4.60;;
53533;SDS011;39421;53.204;6.568;2023-07-16T12:18:19;10.95;;;4.55;;
53533;SDS011;39421;53.204;6.568;2023-07-16T12:20:45;11.65;;;4.72;;
53533;SDS011;39421;53.204;6.568;2023-07-16T12:23:11;15.18;;;4.80;;
53533;SDS011;39421;53.204;6.568;2023-07-16T12:25:37;12.23;;;4.63;;
53533;SDS011;39421;53.204;6.568;2023-07-16T12:28:03;12.85;;;4.60;;
53533;SDS011;39421;53.204;6.568;2023-07-16T12:30:29;12.88;;;5.15;;
53533;SDS011;39421;53.204;6.568;2023-07-16T12:32:56;12.97;;;5.57;;
53533;SDS011;39421;53.204;6.568;2023-07-16T12:35:22;11.63;;;5.22;;
53533;SDS011;39421;53.204;6.568;2023-07-16T12:37:48;11.65;;;5.25;;
53533;SDS011;39421;53.204;6.568;2023-07-16T12:40:14;11.20;;;5.22;;
53533;SDS011;39421;53.204;6.568;2023-07-16T12:42:42;10.98;;;5.03;;
53533;SDS011;39421;53.204;6.568;2023-07-16T12:45:08;10.85;;;4.65;;
53533;SDS011;39421;53.204;6.568;2023-07-16T12:47:34;10.90;;;4.83;;
53533;SDS011;39421;53.204;6.568;2023-07-16T12:50:00;10.98;;;4.47;;
53533;SDS011;39421;53.204;6.568;2023-07-16T12:52:26;10.60;;;4.47;;
53533;SDS011;39421;53.204;6.568;2023-07-16T12:54:53;11.57;;;4.60;;
53533;SDS011;39421;53.204;6.568;2023-07-16T12:57:19;12.65;;;4.80;;
53533;SDS011;39421;53.204;6.568;2023-07-16T12:59:45;12.35;;;4.32;;
53533;SDS011;39421;53.204;6.568;2023-07-16T13:02:11;11.27;;;4.35;;
53533;SDS011;39421;53.204;6.568;2023-07-16T13:04:37;11.23;;;4.60;;
53533;SDS011;39421;53.204;6.568;2023-07-16T13:07:03;10.35;;;4.25;;
53533;SDS011;39421;53.204;6.568;2023-07-16T13:09:30;10.35;;;4.20;;
53533;SDS011;39421;53.204;6.568;2023-07-16T13:11:56;11.13;;;4.20;;
53533;SDS011;39421;53.204;6.568;2023-07-16T13:14:22;11.87;;;4.20;;
53533;SDS011;39421;53.204;6.568;2023-07-16T13:16:48;10.55;;;3.90;;
53533;SDS011;39421;53.204;6.568;2023-07-16T13:19:14;9.50;;;3.85;;
53533;SDS011;39421;53.204;6.568;2023-07-16T13:21:40;11.20;;;4.25;;
53533;SDS011;39421;53.204;6.568;2023-07-16T13:24:06;17.77;;;4.18;;
53533;SDS011;39421;53.204;6.568;2023-07-16T13:26:33;11.63;;;3.73;;
53533;SDS011;39421;53.204;6.568;2023-07-16T13:28:59;12.13;;;3.60;;
53533;SDS011;39421;53.204;6.568;2023-07-16T13:31:25;13.00;;;3.60;;
53533;SDS011;39421;53.204;6.568;2023-07-16T13:33:51;11.85;;;3.20;;
53533;SDS011;39421;53.204;6.568;2023-07-16T13:36:17;12.63;;;3.50;;
53533;SDS011;39421;53.204;6.568;2023-07-16T13:38:44;10.77;;;3.07;;
53533;SDS011;39421;53.204;6.568;2023-07-16T13:41:10;10.63;;;2.70;;
53533;SDS011;39421;53.204;6.568;2023-07-16T13:43:36;13.18;;;3.10;;
53533;SDS011;39421;53.204;6.568;2023-07-16T13:46:02;29.20;;;4.28;;
53533;SDS011;39421;53.204;6.568;2023-07-16T13:48:28;11.23;;;2.78;;
53533;SDS011;39421;53.204;6.568;2023-07-16T13:50:55;10.88;;;2.60;;
53533;SDS011;39421;53.204;6.568;2023-07-16T13:53:21;12.23;;;2.53;;
53533;SDS011;39421;53.204;6.568;2023-07-16T13:55:47;10.45;;;2.40;;
53533;SDS011;39421;53.204;6.568;2023-07-16T13:58:13;10.32;;;2.60;;
53533;SDS011;39421;53.204;6.568;2023-07-16T14:00:40;12.45;;;2.53;;
53533;SDS011;39421;53.204;6.568;2023-07-16T14:03:06;11.50;;;2.58;;
53533;SDS011;39421;53.204;6.568;2023-07-16T14:05:32;9.77;;;2.28;;
53533;SDS011;39421;53.204;6.568;2023-07-16T14:08:03;13.17;;;2.60;;
53533;SDS011;39421;53.204;6.568;2023-07-16T14:10:30;12.30;;;2.40;;
53533;SDS011;39421;53.204;6.568;2023-07-16T14:12:56;10.15;;;2.40;;
53533;SDS011;39421;53.204;6.568;2023-07-16T14:15:23;12.55;;;2.53;;
53533;SDS011;39421;53.204;6.568;2023-07-16T14:17:49;12.02;;;2.55;;
53533;SDS011;39421;53.204;6.568;2023-07-16T14:20:15;11.37;;;2.17;;
53533;SDS011;39421;53.204;6.568;2023-07-16T14:22:41;10.43;;;2.22;;
53533;SDS011;39421;53.204;6.568;2023-07-16T14:25:07;11.32;;;2.38;;
53533;SDS011;39421;53.204;6.568;2023-07-16T14:27:34;25.75;;;3.30;;
53533;SDS011;39421;53.204;6.568;2023-07-16T14:30:00;19.77;;;2.70;;
53533;SDS011;39421;53.204;6.568;2023-07-16T14:32:27;11.02;;;1.90;;
53533;SDS011;39421;53.204;6.568;2023-07-16T14:34:54;11.25;;;2.53;;
53533;SDS011;39421;53.204;6.568;2023-07-16T14:37:20;12.68;;;2.22;;
53533;SDS011;39421;53.204;6.568;2023-07-16T14:39:46;10.63;;;2.03;;